Terminal Aerodrome Forecast
Issued by NWS

Home | Current Version | Previous Version | Text Only | Print | Product List | Glossary Off
Versions: 1 2 3 4 5 6 7 8 9 10 11 12 13 14 15 16 17 18

548
FTUS43 KBIS 211735
TAFJMS
TAF
KJMS 211735Z 2118/2218 17018G24KT P6SM SKC
     FM212300 15011KT P6SM FEW080 FEW200
     FM220100 12006KT P6SM FEW070 FEW200
     FM220200 03005KT P6SM FEW070 FEW200
     FM220900 01009KT P6SM FEW110 FEW250
     FM221600 04012KT P6SM BKN020 BKN110=

USA.gov is the U.S. government's official web portal to all federal, state and local government web resources and services.